sensor_id;sensor_type;location;lat;lon;timestamp;pressure;altitude;pressure_sealevel;temperature;humidity
7297;BME280;40758;54.038;11.684;2023-05-07T00:00:27;102170.50;;;6.53;88.12
7297;BME280;40758;54.038;11.684;2023-05-07T00:02:54;102174.22;;;6.52;88.44
7297;BME280;40758;54.038;11.684;2023-05-07T00:05:21;102181.47;;;6.51;88.08
7297;BME280;40758;54.038;11.684;2023-05-07T00:07:49;102171.69;;;6.50;88.35
7297;BME280;40758;54.038;11.684;2023-05-07T00:10:15;102179.44;;;6.53;88.11
7297;BME280;40758;54.038;11.684;2023-05-07T00:12:42;102169.66;;;6.52;87.86
7297;BME280;40758;54.038;11.684;2023-05-07T00:15:10;102183.84;;;6.54;87.67
7297;BME280;40758;54.038;11.684;2023-05-07T00:17:37;102181.97;;;6.55;87.73
7297;BME280;40758;54.038;11.684;2023-05-07T00:20:05;102177.78;;;6.60;87.86
7297;BME280;40758;54.038;11.684;2023-05-07T00:22:31;102179.19;;;6.64;88.35
7297;BME280;40758;54.038;11.684;2023-05-07T00:24:59;102164.94;;;6.54;87.58
7297;BME280;40758;54.038;11.684;2023-05-07T00:27:25;102165.44;;;6.50;88.29
7297;BME280;40758;54.038;11.684;2023-05-07T00:29:52;102180.00;;;6.57;88.40
7297;BME280;40758;54.038;11.684;2023-05-07T00:32:19;102173.56;;;6.58;88.32
7297;BME280;40758;54.038;11.684;2023-05-07T00:34:45;102132.97;;;6.33;87.81
7297;BME280;40758;54.038;11.684;2023-05-07T00:37:12;102159.19;;;6.49;88.00
7297;BME280;40758;54.038;11.684;2023-05-07T00:39:39;102175.09;;;6.60;88.40
7297;BME280;40758;54.038;11.684;2023-05-07T00:42:06;102170.72;;;6.59;88.33
7297;BME280;40758;54.038;11.684;2023-05-07T00:44:32;102159.75;;;6.61;87.46
7297;BME280;40758;54.038;11.684;2023-05-07T00:47:01;102167.00;;;6.60;87.66
7297;BME280;40758;54.038;11.684;2023-05-07T00:49:38;102163.31;;;6.61;87.55
7297;BME280;40758;54.038;11.684;2023-05-07T00:52:06;102168.00;;;6.59;87.75
7297;BME280;40758;54.038;11.684;2023-05-07T00:54:34;102162.25;;;6.54;87.93
7297;BME280;40758;54.038;11.684;2023-05-07T00:57:02;102167.16;;;6.59;87.94
7297;BME280;40758;54.038;11.684;2023-05-07T00:59:32;102159.25;;;6.57;88.10
7297;BME280;40758;54.038;11.684;2023-05-07T01:01:59;102168.84;;;6.60;88.16
7297;BME280;40758;54.038;11.684;2023-05-07T01:04:26;102167.72;;;6.62;88.35
7297;BME280;40758;54.038;11.684;2023-05-07T01:06:58;102171.41;;;6.61;87.71
7297;BME280;40758;54.038;11.684;2023-05-07T01:09:26;102169.69;;;6.60;87.78
7297;BME280;40758;54.038;11.684;2023-05-07T01:11:55;102170.72;;;6.59;88.42
7297;BME280;40758;54.038;11.684;2023-05-07T01:14:23;102163.31;;;6.61;87.61
7297;BME280;40758;54.038;11.684;2023-05-07T01:16:50;102178.50;;;6.62;87.79
7297;BME280;40758;54.038;11.684;2023-05-07T01:19:20;102164.47;;;6.59;88.04
7297;BME280;40758;54.038;11.684;2023-05-07T01:21:48;102169.94;;;6.67;87.83
7297;BME280;40758;54.038;11.684;2023-05-07T01:24:15;102164.53;;;6.67;87.75
7297;BME280;40758;54.038;11.684;2023-05-07T01:26:43;102174.63;;;6.65;87.81
7297;BME280;40758;54.038;11.684;2023-05-07T01:29:11;102171.91;;;6.65;87.95
7297;BME280;40758;54.038;11.684;2023-05-07T01:31:39;102170.22;;;6.64;87.99
7297;BME280;40758;54.038;11.684;2023-05-07T01:34:08;102174.78;;;6.63;87.69
7297;BME280;40758;54.038;11.684;2023-05-07T01:36:38;102169.38;;;6.63;87.78
7297;BME280;40758;54.038;11.684;2023-05-07T01:39:06;102176.47;;;6.64;88.13
7297;BME280;40758;54.038;11.684;2023-05-07T01:41:34;102174.78;;;6.63;87.64
7297;BME280;40758;54.038;11.684;2023-05-07T01:44:03;102165.69;;;6.64;87.40
7297;BME280;40758;54.038;11.684;2023-05-07T01:46:31;102173.59;;;6.66;87.58
7297;BME280;40758;54.038;11.684;2023-05-07T01:48:58;102170.06;;;6.65;87.36
7297;BME280;40758;54.038;11.684;2023-05-07T01:51:25;102164.66;;;6.65;88.00
7297;BME280;40758;54.038;11.684;2023-05-07T01:53:53;102168.22;;;6.66;87.85
7297;BME280;40758;54.038;11.684;2023-05-07T01:56:19;102162.69;;;6.68;87.54
7297;BME280;40758;54.038;11.684;2023-05-07T01:58:46;102166.22;;;6.68;87.64
7297;BME280;40758;54.038;11.684;2023-05-07T02:01:13;102163.66;;;6.66;87.47
7297;BME280;40758;54.038;11.684;2023-05-07T02:03:40;102170.06;;;6.65;87.73
7297;BME280;40758;54.038;11.684;2023-05-07T02:06:08;102173.59;;;6.66;87.26
7297;BME280;40758;54.038;11.684;2023-05-07T02:08:35;102166.53;;;6.65;87.79
7297;BME280;40758;54.038;11.684;2023-05-07T02:11:02;102166.22;;;6.68;86.79
7297;BME280;40758;54.038;11.684;2023-05-07T02:13:32;102171.06;;;6.64;87.87
7297;BME280;40758;54.038;11.684;2023-05-07T02:15:58;102172.75;;;6.65;86.70
7297;BME280;40758;54.038;11.684;2023-05-07T02:18:25;102167.53;;;6.64;86.70
7297;BME280;40758;54.038;11.684;2023-05-07T02:20:52;102173.09;;;6.62;87.20
7297;BME280;40758;54.038;11.684;2023-05-07T02:23:19;102169.03;;;6.58;87.19
7297;BME280;40758;54.038;11.684;2023-05-07T02:25:46;102173.25;;;6.61;87.06
7297;BME280;40758;54.038;11.684;2023-05-07T02:28:13;102180.00;;;6.57;87.11
7297;BME280;40758;54.038;11.684;2023-05-07T02:30:40;102177.66;;;6.62;87.33
7297;BME280;40758;54.038;11.684;2023-05-07T02:33:07;102180.84;;;6.57;86.86
7297;BME280;40758;54.038;11.684;2023-05-07T02:35:35;102186.44;;;6.64;87.44
7297;BME280;40758;54.038;11.684;2023-05-07T02:38:01;102183.91;;;6.62;86.86
7297;BME280;40758;54.038;11.684;2023-05-07T02:40:28;102184.91;;;6.61;86.63
7297;BME280;40758;54.038;11.684;2023-05-07T02:42:55;102182.22;;;6.61;86.49
7297;BME280;40758;54.038;11.684;2023-05-07T02:45:21;102183.91;;;6.62;86.83
7297;BME280;40758;54.038;11.684;2023-05-07T02:47:48;102184.94;;;6.70;86.89
7297;BME280;40758;54.038;11.684;2023-05-07T02:50:15;102173.75;;;6.56;86.32
7297;BME280;40758;54.038;11.684;2023-05-07T02:52:41;102182.22;;;6.61;86.59
7297;BME280;40758;54.038;11.684;2023-05-07T02:55:08;102190.44;;;6.60;86.62
7297;BME280;40758;54.038;11.684;2023-05-07T02:57:35;102186.91;;;6.59;86.32
7297;BME280;40758;54.038;11.684;2023-05-07T03:00:11;102197.69;;;6.59;86.49
7297;BME280;40758;54.038;11.684;2023-05-07T03:02:38;102194.00;;;6.60;86.81
7297;BME280;40758;54.038;11.684;2023-05-07T03:05:05;102199.38;;;6.60;86.74
7297;BME280;40758;54.038;11.684;2023-05-07T03:07:35;102194.69;;;6.62;85.94
7297;BME280;40758;54.038;11.684;2023-05-07T03:10:02;102193.50;;;6.65;86.51
7297;BME280;40758;54.038;11.684;2023-05-07T03:12:30;102194.69;;;6.62;86.38
7297;BME280;40758;54.038;11.684;2023-05-07T03:14:57;102196.00;;;6.58;86.67
7297;BME280;40758;54.038;11.684;2023-05-07T03:17:24;102191.63;;;6.57;87.10
7297;BME280;40758;54.038;11.684;2023-05-07T03:19:50;102194.50;;;6.56;86.19
7297;BME280;40758;54.038;11.684;2023-05-07T03:22:17;102195.63;;;6.53;86.92
7297;BME280;40758;54.038;11.684;2023-05-07T03:24:44;102196.66;;;6.52;86.43
7297;BME280;40758;54.038;11.684;2023-05-07T03:27:11;102189.56;;;6.51;86.53
7297;BME280;40758;54.038;11.684;2023-05-07T03:29:39;102199.53;;;6.51;86.75
7297;BME280;40758;54.038;11.684;2023-05-07T03:32:06;102207.63;;;6.51;86.60
7297;BME280;40758;54.038;11.684;2023-05-07T03:34:36;102185.44;;;6.39;86.89
7297;BME280;40758;54.038;11.684;2023-05-07T03:37:02;102190.84;;;6.39;86.67
7297;BME280;40758;54.038;11.684;2023-05-07T03:39:29;102205.06;;;6.49;86.50
7297;BME280;40758;54.038;11.684;2023-05-07T03:41:56;102202.53;;;6.48;86.80
7297;BME280;40758;54.038;11.684;2023-05-07T03:44:23;102207.06;;;6.47;87.45
7297;BME280;40758;54.038;11.684;2023-05-07T03:46:51;102211.31;;;6.50;86.70
7297;BME280;40758;54.038;11.684;2023-05-07T03:49:17;102207.06;;;6.47;87.50
7297;BME280;40758;54.038;11.684;2023-05-07T03:51:44;102211.09;;;6.43;87.61
7297;BME280;40758;54.038;11.684;2023-05-07T03:54:10;102209.94;;;6.46;87.65
7297;BME280;40758;54.038;11.684;2023-05-07T03:56:37;102214.16;;;6.48;86.96
7297;BME280;40758;54.038;11.684;2023-05-07T03:59:04;102213.16;;;6.49;87.56
7297;BME280;40758;54.038;11.684;2023-05-07T04:01:31;102221.25;;;6.49;87.51
7297;BME280;40758;54.038;11.684;2023-05-07T04:03:57;102211.84;;;6.53;86.82
7297;BME280;40758;54.038;11.684;2023-05-07T04:06:24;102214.69;;;6.52;86.88
7297;BME280;40758;54.038;11.684;2023-05-07T04:08:51;102214.88;;;6.50;87.10
7297;BME280;40758;54.038;11.684;2023-05-07T04:11:17;102222.63;;;6.53;87.09
7297;BME280;40758;54.038;11.684;2023-05-07T04:13:44;102206.13;;;6.56;87.84
7297;BME280;40758;54.038;11.684;2023-05-07T04:16:12;102207.25;;;6.46;87.78
7297;BME280;40758;54.038;11.684;2023-05-07T04:18:39;102213.84;;;6.51;86.78
7297;BME280;40758;54.038;11.684;2023-05-07T04:21:05;102208.28;;;6.53;86.90
7297;BME280;40758;54.038;11.684;2023-05-07T04:23:32;102211.53;;;6.56;87.21
7297;BME280;40758;54.038;11.684;2023-05-07T04:25:59;102220.31;;;6.58;87.37
7297;BME280;40758;54.038;11.684;2023-05-07T04:28:25;102219.28;;;6.59;87.65
7297;BME280;40758;54.038;11.684;2023-05-07T04:30:52;102221.69;;;6.62;87.08
7297;BME280;40758;54.038;11.684;2023-05-07T04:33:19;102218.66;;;6.65;86.80
7297;BME280;40758;54.038;11.684;2023-05-07T04:35:46;102198.41;;;6.61;86.85
7297;BME280;40758;54.038;11.684;2023-05-07T04:38:12;102213.81;;;6.77;87.39
7297;BME280;40758;54.038;11.684;2023-05-07T04:40:39;102218.06;;;6.80;87.15
7297;BME280;40758;54.038;11.684;2023-05-07T04:43:06;102222.13;;;6.84;86.14
7297;BME280;40758;54.038;11.684;2023-05-07T04:45:33;102211.66;;;6.81;86.60
7297;BME280;40758;54.038;11.684;2023-05-07T04:48:00;102221.34;;;6.91;86.40
7297;BME280;40758;54.038;11.684;2023-05-07T04:50:27;102192.38;;;7.10;85.68
7297;BME280;40758;54.038;11.684;2023-05-07T04:52:54;102223.91;;;7.43;86.03
7297;BME280;40758;54.038;11.684;2023-05-07T04:55:22;102221.03;;;7.37;84.98
7297;BME280;40758;54.038;11.684;2023-05-07T04:57:48;102217.13;;;7.31;85.70
7297;BME280;40758;54.038;11.684;2023-05-07T05:00:15;102223.72;;;7.37;85.11
7297;BME280;40758;54.038;11.684;2023-05-07T05:02:43;102228.28;;;7.44;84.86
7297;BME280;40758;54.038;11.684;2023-05-07T05:05:09;102233.69;;;7.44;84.25
7297;BME280;40758;54.038;11.684;2023-05-07T05:07:37;102230.69;;;7.64;84.47
7297;BME280;40758;54.038;11.684;2023-05-07T05:10:05;102235.81;;;7.91;83.73
7297;BME280;40758;54.038;11.684;2023-05-07T05:12:32;102238.03;;;8.12;82.81
7297;BME280;40758;54.038;11.684;2023-05-07T05:14:58;102232.56;;;8.69;82.42
7297;BME280;40758;54.038;11.684;2023-05-07T05:17:26;102219.13;;;9.00;80.97
7297;BME280;40758;54.038;11.684;2023-05-07T05:19:53;102226.44;;;9.31;80.03
7297;BME280;40758;54.038;11.684;2023-05-07T05:22:21;102228.56;;;9.52;78.59
7297;BME280;40758;54.038;11.684;2023-05-07T05:24:47;102235.91;;;9.66;78.28
7297;BME280;40758;54.038;11.684;2023-05-07T05:27:14;102239.91;;;9.78;78.39
7297;BME280;40758;54.038;11.684;2023-05-07T05:29:41;102240.00;;;9.62;76.68
7297;BME280;40758;54.038;11.684;2023-05-07T05:32:10;102246.25;;;9.94;76.93
7297;BME280;40758;54.038;11.684;2023-05-07T05:34:37;102249.56;;;10.04;76.17
7297;BME280;40758;54.038;11.684;2023-05-07T05:37:03;102233.69;;;9.70;75.94
7297;BME280;40758;54.038;11.684;2023-05-07T05:39:32;102238.75;;;9.96;75.42
7297;BME280;40758;54.038;11.684;2023-05-07T05:41:59;102255.34;;;10.01;75.17
7297;BME280;40758;54.038;11.684;2023-05-07T05:44:26;102246.56;;;10.59;75.01
7297;BME280;40758;54.038;11.684;2023-05-07T05:46:52;102251.38;;;10.87;74.33
7297;BME280;40758;54.038;11.684;2023-05-07T05:49:21;102253.59;;;10.69;72.96
7297;BME280;40758;54.038;11.684;2023-05-07T05:51:48;102261.31;;;10.19;72.56
7297;BME280;40758;54.038;11.684;2023-05-07T05:54:15;102255.28;;;10.32;73.01
7297;BME280;40758;54.038;11.684;2023-05-07T05:56:42;102262.34;;;10.18;72.05
7297;BME280;40758;54.038;11.684;2023-05-07T05:59:08;102263.00;;;9.74;72.82
7297;BME280;40758;54.038;11.684;2023-05-07T06:01:35;102269.75;;;10.01;73.14
7297;BME280;40758;54.038;11.684;2023-05-07T06:04:02;102269.44;;;10.27;72.64
7297;BME280;40758;54.038;11.684;2023-05-07T06:06:28;102273.84;;;10.28;72.31
7297;BME280;40758;54.038;11.684;2023-05-07T06:08:55;102270.31;;;10.43;71.16
7297;BME280;40758;54.038;11.684;2023-05-07T06:11:22;102269.47;;;10.42;70.29
7297;BME280;40758;54.038;11.684;2023-05-07T06:13:48;102261.66;;;10.62;71.07
7297;BME280;40758;54.038;11.684;2023-05-07T06:16:15;102266.41;;;10.45;70.02
7297;BME280;40758;54.038;11.684;2023-05-07T06:18:42;102274.84;;;10.65;70.89
7297;BME280;40758;54.038;11.684;2023-05-07T06:21:09;102252.41;;;10.33;70.32
7297;BME280;40758;54.038;11.684;2023-05-07T06:23:36;102285.75;;;10.80;71.26
7297;BME280;40758;54.038;11.684;2023-05-07T06:26:03;102282.84;;;10.81;70.74
7297;BME280;40758;54.038;11.684;2023-05-07T06:28:30;102275.84;;;10.87;69.73
7297;BME280;40758;54.038;11.684;2023-05-07T06:31:12;102276.91;;;10.25;70.24
7297;BME280;40758;54.038;11.684;2023-05-07T06:33:39;102275.25;;;10.62;69.76
7297;BME280;40758;54.038;11.684;2023-05-07T06:36:06;102271.41;;;11.30;70.33
7297;BME280;40758;54.038;11.684;2023-05-07T06:38:33;102275.59;;;11.48;68.43
7297;BME280;40758;54.038;11.684;2023-05-07T06:41:00;102275.31;;;11.57;68.61
7297;BME280;40758;54.038;11.684;2023-05-07T06:43:26;102251.31;;;11.61;67.36
7297;BME280;40758;54.038;11.684;2023-05-07T06:45:53;102271.97;;;11.91;67.26
7297;BME280;40758;54.038;11.684;2023-05-07T06:48:19;102255.00;;;11.89;67.08
7297;BME280;40758;54.038;11.684;2023-05-07T06:50:46;102270.50;;;12.32;66.70
7297;BME280;40758;54.038;11.684;2023-05-07T06:53:13;102275.31;;;12.58;66.29
7297;BME280;40758;54.038;11.684;2023-05-07T06:55:40;102276.84;;;12.39;65.54
7297;BME280;40758;54.038;11.684;2023-05-07T06:58:07;102279.38;;;11.97;64.82
7297;BME280;40758;54.038;11.684;2023-05-07T07:00:35;102277.19;;;12.08;65.04
7297;BME280;40758;54.038;11.684;2023-05-07T07:03:02;102281.06;;;11.98;64.21
7297;BME280;40758;54.038;11.684;2023-05-07T07:05:28;102292.84;;;12.06;64.36
7297;BME280;40758;54.038;11.684;2023-05-07T07:07:55;102289.19;;;12.13;64.38
7297;BME280;40758;54.038;11.684;2023-05-07T07:10:22;102276.25;;;12.22;63.28
7297;BME280;40758;54.038;11.684;2023-05-07T07:12:49;102281.81;;;12.85;63.14
7297;BME280;40758;54.038;11.684;2023-05-07T07:15:16;102286.28;;;12.64;64.15
7297;BME280;40758;54.038;11.684;2023-05-07T07:17:43;102283.94;;;12.61;62.68
7297;BME280;40758;54.038;11.684;2023-05-07T07:20:10;102290.59;;;12.31;61.81
7297;BME280;40758;54.038;11.684;2023-05-07T07:22:37;102282.59;;;11.86;63.66
7297;BME280;40758;54.038;11.684;2023-05-07T07:25:04;102280.13;;;11.55;63.09
7297;BME280;40758;54.038;11.684;2023-05-07T07:27:31;102279.44;;;12.04;62.97
7297;BME280;40758;54.038;11.684;2023-05-07T07:29:58;102284.75;;;12.34;62.73
7297;BME280;40758;54.038;11.684;2023-05-07T07:32:24;102278.78;;;12.73;61.54
7297;BME280;40758;54.038;11.684;2023-05-07T07:34:53;102287.97;;;12.65;62.40
7297;BME280;40758;54.038;11.684;2023-05-07T07:37:19;102286.50;;;12.97;61.24
7297;BME280;40758;54.038;11.684;2023-05-07T07:39:46;102278.22;;;12.77;60.08
7297;BME280;40758;54.038;11.684;2023-05-07T07:42:13;102259.78;;;11.87;60.57
7297;BME280;40758;54.038;11.684;2023-05-07T07:44:39;102281.81;;;12.57;60.52
7297;BME280;40758;54.038;11.684;2023-05-07T07:47:08;102280.75;;;12.58;59.89
7297;BME280;40758;54.038;11.684;2023-05-07T07:49:37;102279.03;;;12.50;59.70
7297;BME280;40758;54.038;11.684;2023-05-07T07:52:04;102281.72;;;12.99;60.15
7297;BME280;40758;54.038;11.684;2023-05-07T07:54:32;102279.63;;;13.29;59.40
7297;BME280;40758;54.038;11.684;2023-05-07T07:56:58;102278.38;;;13.39;58.13
7297;BME280;40758;54.038;11.684;2023-05-07T07:59:26;102271.81;;;13.74;58.81
7297;BME280;40758;54.038;11.684;2023-05-07T08:01:52;102276.72;;;14.05;58.39
7297;BME280;40758;54.038;11.684;2023-05-07T08:04:22;102267.22;;;13.88;56.54
7297;BME280;40758;54.038;11.684;2023-05-07T08:06:48;102277.53;;;13.86;56.39
7297;BME280;40758;54.038;11.684;2023-05-07T08:09:15;102283.03;;;14.13;56.60
7297;BME280;40758;54.038;11.684;2023-05-07T08:11:42;102269.41;;;14.32;57.14
7297;BME280;40758;54.038;11.684;2023-05-07T08:14:09;102264.53;;;14.15;54.26
7297;BME280;40758;54.038;11.684;2023-05-07T08:16:36;102268.16;;;14.48;54.80
7297;BME280;40758;54.038;11.684;2023-05-07T08:19:03;102266.69;;;14.59;54.08
7297;BME280;40758;54.038;11.684;2023-05-07T08:21:29;102262.50;;;14.70;53.56
7297;BME280;40758;54.038;11.684;2023-05-07T08:23:59;102262.31;;;14.51;54.33
7297;BME280;40758;54.038;11.684;2023-05-07T08:26:26;102265.63;;;14.93;54.07
7297;BME280;40758;54.038;11.684;2023-05-07T08:28:53;102266.91;;;14.71;53.27
7297;BME280;40758;54.038;11.684;2023-05-07T08:31:19;102270.91;;;14.55;52.60
7297;BME280;40758;54.038;11.684;2023-05-07T08:33:46;102265.47;;;14.61;52.38
7297;BME280;40758;54.038;11.684;2023-05-07T08:36:13;102269.44;;;14.52;52.87
7297;BME280;40758;54.038;11.684;2023-05-07T08:38:40;102266.50;;;14.47;52.92
7297;BME280;40758;54.038;11.684;2023-05-07T08:41:10;102273.38;;;14.03;52.39
7297;BME280;40758;54.038;11.684;2023-05-07T08:43:38;102278.38;;;13.93;52.98
7297;BME280;40758;54.038;11.684;2023-05-07T08:46:08;102261.00;;;14.41;53.76
7297;BME280;40758;54.038;11.684;2023-05-07T08:48:36;102273.63;;;14.75;52.39
7297;BME280;40758;54.038;11.684;2023-05-07T08:51:03;102267.31;;;14.28;50.33
7297;BME280;40758;54.038;11.684;2023-05-07T08:53:30;102268.19;;;14.61;50.30
7297;BME280;40758;54.038;11.684;2023-05-07T08:55:57;102279.25;;;14.20;50.66
7297;BME280;40758;54.038;11.684;2023-05-07T08:58:23;102272.97;;;14.46;51.31
7297;BME280;40758;54.038;11.684;2023-05-07T09:00:52;102269.81;;;14.29;51.31
7297;BME280;40758;54.038;11.684;2023-05-07T09:03:20;102274.91;;;14.52;51.18
7297;BME280;40758;54.038;11.684;2023-05-07T09:05:47;102268.81;;;14.50;51.04
7297;BME280;40758;54.038;11.684;2023-05-07T09:08:15;102267.09;;;14.36;51.18
7297;BME280;40758;54.038;11.684;2023-05-07T09:10:44;102272.13;;;14.26;50.92
7297;BME280;40758;54.038;11.684;2023-05-07T09:13:11;102258.47;;;14.92;52.63
7297;BME280;40758;54.038;11.684;2023-05-07T09:15:39;102257.25;;;14.61;50.65
7297;BME280;40758;54.038;11.684;2023-05-07T09:18:06;102276.78;;;14.65;51.40
7297;BME280;40758;54.038;11.684;2023-05-07T09:20:33;102276.34;;;14.88;51.90
7297;BME280;40758;54.038;11.684;2023-05-07T09:23:00;102278.13;;;15.34;51.34
7297;BME280;40758;54.038;11.684;2023-05-07T09:25:34;102260.00;;;15.39;50.30
7297;BME280;40758;54.038;11.684;2023-05-07T09:28:02;102265.31;;;15.28;49.98
7297;BME280;40758;54.038;11.684;2023-05-07T09:30:30;102252.94;;;15.12;49.16
7297;BME280;40758;54.038;11.684;2023-05-07T09:32:58;102259.84;;;15.28;50.71
7297;BME280;40758;54.038;11.684;2023-05-07T09:35:26;102259.47;;;15.11;50.00
7297;BME280;40758;54.038;11.684;2023-05-07T09:37:59;102267.25;;;15.07;50.87
7297;BME280;40758;54.038;11.684;2023-05-07T09:40:30;102262.78;;;15.33;50.67
7297;BME280;40758;54.038;11.684;2023-05-07T09:43:08;102264.97;;;15.69;50.13
7297;BME280;40758;54.038;11.684;2023-05-07T09:45:36;102262.66;;;15.59;49.11
7297;BME280;40758;54.038;11.684;2023-05-07T09:48:04;102259.63;;;15.29;49.38
7297;BME280;40758;54.038;11.684;2023-05-07T09:50:42;102270.16;;;15.26;49.45
7297;BME280;40758;54.038;11.684;2023-05-07T09:53:11;102254.28;;;15.54;50.36
7297;BME280;40758;54.038;11.684;2023-05-07T09:55:39;102268.97;;;15.66;50.26
7297;BME280;40758;54.038;11.684;2023-05-07T09:58:07;102263.69;;;15.72;50.58
7297;BME280;40758;54.038;11.684;2023-05-07T10:00:35;102265.56;;;15.20;50.90
7297;BME280;40758;54.038;11.684;2023-05-07T10:03:02;102277.25;;;14.55;50.60
7297;BME280;40758;54.038;11.684;2023-05-07T10:05:29;102261.94;;;13.73;51.64
7297;BME280;40758;54.038;11.684;2023-05-07T10:07:56;102275.22;;;14.03;52.85
7297;BME280;40758;54.038;11.684;2023-05-07T10:10:24;102260.56;;;14.10;52.52
7297;BME280;40758;54.038;11.684;2023-05-07T10:12:52;102270.25;;;14.26;52.64
7297;BME280;40758;54.038;11.684;2023-05-07T10:15:19;102269.41;;;14.92;53.45
7297;BME280;40758;54.038;11.684;2023-05-07T10:17:46;102268.09;;;15.73;52.20
7297;BME280;40758;54.038;11.684;2023-05-07T10:20:14;102268.34;;;15.64;49.91
7297;BME280;40758;54.038;11.684;2023-05-07T10:22:43;102263.75;;;15.52;49.21
7297;BME280;40758;54.038;11.684;2023-05-07T10:25:18;102260.13;;;15.64;50.60
7297;BME280;40758;54.038;11.684;2023-05-07T10:27:46;102268.53;;;16.08;49.02
7297;BME280;40758;54.038;11.684;2023-05-07T10:33:03;102259.84;;;15.79;48.97
7297;BME280;40758;54.038;11.684;2023-05-07T10:35:38;102259.34;;;15.95;47.38
7297;BME280;40758;54.038;11.684;2023-05-07T10:38:08;102255.47;;;15.72;48.00
7297;BME280;40758;54.038;11.684;2023-05-07T10:40:35;102269.25;;;15.45;47.72
7297;BME280;40758;54.038;11.684;2023-05-07T10:43:04;102265.34;;;15.79;48.36
7297;BME280;40758;54.038;11.684;2023-05-07T10:45:36;102277.31;;;15.85;48.67
7297;BME280;40758;54.038;11.684;2023-05-07T10:48:12;102272.28;;;16.13;48.14
7297;BME280;40758;54.038;11.684;2023-05-07T10:51:18;102272.72;;;16.10;46.69
7297;BME280;40758;54.038;11.684;2023-05-07T10:53:45;102267.47;;;15.70;45.28
7297;BME280;40758;54.038;11.684;2023-05-07T10:58:45;102292.34;;;16.07;46.80
7297;BME280;40758;54.038;11.684;2023-05-07T11:01:12;102278.44;;;16.09;46.70
7297;BME280;40758;54.038;11.684;2023-05-07T11:04:14;102283.34;;;16.57;47.36
7297;BME280;40758;54.038;11.684;2023-05-07T11:06:42;102267.66;;;16.39;45.05
7297;BME280;40758;54.038;11.684;2023-05-07T11:09:08;102270.50;;;16.26;45.04
7297;BME280;40758;54.038;11.684;2023-05-07T11:11:45;102267.69;;;17.07;46.13
7297;BME280;40758;54.038;11.684;2023-05-07T11:14:14;102277.84;;;17.07;45.17
7297;BME280;40758;54.038;11.684;2023-05-07T11:17:02;102278.63;;;16.39;44.05
7297;BME280;40758;54.038;11.684;2023-05-07T11:19:52;102269.53;;;17.13;46.59
7297;BME280;40758;54.038;11.684;2023-05-07T11:25:05;102267.44;;;16.65;45.97
7297;BME280;40758;54.038;11.684;2023-05-07T11:27:32;102262.47;;;15.99;45.55
7297;BME280;40758;54.038;11.684;2023-05-07T11:29:59;102262.78;;;15.84;45.46
7297;BME280;40758;54.038;11.684;2023-05-07T11:32:31;102274.84;;;16.08;45.95
7297;BME280;40758;54.038;11.684;2023-05-07T11:34:59;102265.78;;;15.69;46.32
7297;BME280;40758;54.038;11.684;2023-05-07T11:37:27;102256.75;;;15.69;46.03
7297;BME280;40758;54.038;11.684;2023-05-07T11:40:04;102266.13;;;15.86;46.73
7297;BME280;40758;54.038;11.684;2023-05-07T11:42:33;102260.44;;;16.19;46.44
7297;BME280;40758;54.038;11.684;2023-05-07T11:45:01;102264.41;;;15.92;45.01
7297;BME280;40758;54.038;11.684;2023-05-07T11:47:30;102263.91;;;16.58;45.93
7297;BME280;40758;54.038;11.684;2023-05-07T11:50:02;102261.16;;;16.58;44.67
7297;BME280;40758;54.038;11.684;2023-05-07T11:52:30;102248.97;;;16.79;44.52
7297;BME280;40758;54.038;11.684;2023-05-07T11:54:57;102263.09;;;16.01;43.13
7297;BME280;40758;54.038;11.684;2023-05-07T11:57:25;102251.81;;;15.84;44.74
7297;BME280;40758;54.038;11.684;2023-05-07T11:59:56;102256.69;;;16.39;45.43
7297;BME280;40758;54.038;11.684;2023-05-07T12:02:24;102253.88;;;16.20;44.33
7297;BME280;40758;54.038;11.684;2023-05-07T12:04:52;102258.19;;;16.35;44.53
7297;BME280;40758;54.038;11.684;2023-05-07T12:07:19;102263.56;;;16.23;43.68
7297;BME280;40758;54.038;11.684;2023-05-07T12:09:46;102267.50;;;16.02;43.77
7297;BME280;40758;54.038;11.684;2023-05-07T12:12:14;102262.22;;;16.07;43.68
7297;BME280;40758;54.038;11.684;2023-05-07T12:14:45;102259.28;;;16.02;43.29
7297;BME280;40758;54.038;11.684;2023-05-07T12:17:13;102249.31;;;16.39;42.35
7297;BME280;40758;54.038;11.684;2023-05-07T12:19:43;102261.63;;;16.55;43.53
7297;BME280;40758;54.038;11.684;2023-05-07T12:22:10;102262.16;;;16.70;42.24
7297;BME280;40758;54.038;11.684;2023-05-07T12:27:10;102264.91;;;16.64;41.67
7297;BME280;40758;54.038;11.684;2023-05-07T12:29:37;102245.34;;;16.60;42.30
7297;BME280;40758;54.038;11.684;2023-05-07T12:32:06;102261.84;;;16.54;41.48
7297;BME280;40758;54.038;11.684;2023-05-07T12:34:34;102254.13;;;16.19;41.05
7297;BME280;40758;54.038;11.684;2023-05-07T12:37:02;102260.00;;;16.47;42.70
7297;BME280;40758;54.038;11.684;2023-05-07T12:39:30;102256.56;;;17.02;43.05
7297;BME280;40758;54.038;11.684;2023-05-07T12:41:58;102235.72;;;17.49;42.66
7297;BME280;40758;54.038;11.684;2023-05-07T12:44:30;102240.97;;;17.51;40.17
7297;BME280;40758;54.038;11.684;2023-05-07T12:46:57;102247.03;;;17.05;39.91
7297;BME280;40758;54.038;11.684;2023-05-07T12:49:24;102252.81;;;17.15;40.41
7297;BME280;40758;54.038;11.684;2023-05-07T12:51:51;102259.78;;;16.99;40.40
7297;BME280;40758;54.038;11.684;2023-05-07T12:54:33;102258.88;;;17.23;40.62
7297;BME280;40758;54.038;11.684;2023-05-07T12:57:06;102250.59;;;17.42;40.68
7297;BME280;40758;54.038;11.684;2023-05-07T12:59:37;102251.84;;;17.46;39.52
7297;BME280;40758;54.038;11.684;2023-05-07T13:02:05;102253.53;;;17.28;39.23
7297;BME280;40758;54.038;11.684;2023-05-07T13:04:35;102244.59;;;16.96;39.15
7297;BME280;40758;54.038;11.684;2023-05-07T13:07:02;102256.69;;;16.70;38.23
7297;BME280;40758;54.038;11.684;2023-05-07T13:09:30;102256.22;;;16.48;38.95